Flight Track Log - Related Links

Times and Time Zones

All times are in EDT time to prevent confusion due to time zone crossing. See the SKW7398 flight status page for this flight to view local times or setup timezone preferences in your user account.

Time Position Orientation Groundspeed Altitude Reporting Facility
EDT Latitude Longitude Course Direction KTS MPH feet Rate Location/Type
Tue 09:00:00 AM 43.2493 -114.1684 148° Southeast  Level FlightAware Approximate
Tue 09:00:19 AM 43.2947 -114.2022 166° South 264 304 11,500  Level Salt Lake Center
Tue 09:01:00 AM 43.1881 -114.1159 148° Southeast  Level FlightAware Approximate
Tue 09:01:20 AM 43.2328 -114.1567 152° Southeast 243 280 13,000  Level Salt Lake Center
Tue 09:02:00 AM 43.1243 -114.0705 160° South  Level FlightAware Approximate
Tue 09:02:20 AM 43.1786 -114.1017 143° Southeast 249 287 14,200  Level Salt Lake Center
Tue 09:03:00 AM 43.0551 -114.0420 164° South  Level FlightAware Approximate
Tue 09:03:21 AM 43.1144 -114.0397 145° Southeast 267 307 15,300  Level Salt Lake Center
Tue 09:04:00 AM 42.9858 -114.0143 164° South  Level FlightAware Approximate
Tue 09:04:22 AM 43.0531 -113.9800 145° Southeast 280 322 16,100  Level Salt Lake Center
Tue 09:05:00 AM 42.9160 -113.9887 166° South  Level FlightAware Approximate
Tue 09:05:23 AM 42.9842 -113.9117 144° Southeast 291 335 16,900  Level Salt Lake Center
Tue 09:06:24 AM 42.9175 -113.8475 145° Southeast 301 346 17,400 496 Climbing Salt Lake Center
Tue 09:07:24 AM 42.8494 -113.7814 145° Southeast 310 357 17,900 397 Climbing Salt Lake Center
Tue 09:08:25 AM 42.7694 -113.7056 145° Southeast 314 361 18,200 443 Climbing Salt Lake Center
Tue 09:09:26 AM 42.7006 -113.6389 145° Southeast 316 364 18,800 541 Climbing Salt Lake Center
Tue 09:10:27 AM 42.6331 -113.5739 145° Southeast 317 365 19,300 492 Climbing Salt Lake Center
Tue 09:11:28 AM 42.5594 -113.5039 145° Southeast 322 371 19,800 492 Climbing Salt Lake Center
Tue 09:12:29 AM 42.4708 -113.4194 145° Southeast 325 374 20,300 492 Climbing Salt Lake Center
Tue 09:13:30 AM 42.3964 -113.3497 145° Southeast 326 375 20,800 347 Climbing Salt Lake Center
Tue 09:14:30 AM 42.3208 -113.2792 145° Southeast 329 379 21,000  Climbing Salt Lake Center
Tue 09:15:31 AM 42.2428 -113.2058 145° Southeast 337 388 20,800 -492 Descending Salt Lake Center
Tue 09:16:32 AM 42.1633 -113.1294 145° Southeast 349 402 20,000 -934 Descending Salt Lake Center
Tue 09:17:33 AM 42.0836 -113.0558 146° Southeast 349 402 18,900 -1,131 Descending Salt Lake Center
Tue 09:18:34 AM 42.0069 -112.9856 146° Southeast 340 391 17,700 -934 Descending Salt Lake Center
Tue 09:19:35 AM 41.9303 -112.9122 145° Southeast 338 389 17,000 -787 Descending Salt Lake Center
Tue 09:20:36 AM 41.8522 -112.8428 146° Southeast 336 387 16,100 -885 Descending Salt Lake Center
Tue 09:21:37 AM 41.7761 -112.7717 145° Southeast 335 386 15,200 -541 Descending Salt Lake Center
Tue 09:22:38 AM 41.7008 -112.7019 145° Southeast 333 383 15,000 -98 Descending Salt Lake Center
Tue 09:23:39 AM 41.6347 -112.6311 141° Southeast 312 359 15,000  Level Salt Lake Center
Tue 09:24:22 AM 41.5881 -112.5528 129° Southeast 309 356 15,000  Level Salt Lake Center
Tue 09:24:40 AM 41.5642 -112.5300 144° Southeast 307 353 15,000  Level Salt Lake Center
Tue 09:25:11 AM 41.5364 -112.4842 129° Southeast 310 357 15,000 -295 Level Salt Lake Center
Tue 09:25:41 AM 41.4961 -112.4589 155° Southeast 311 358 14,700 -787 Descending Salt Lake Center
Tue 09:26:12 AM 41.4592 -112.4275 148° Southeast 323 372 14,200 -885 Descending Salt Lake Center
Tue 09:26:42 AM 41.4164 -112.4019 156° South 324 373 13,800 -885 Descending Salt Lake Center
Tue 09:27:13 AM 41.3769 -112.3694 148° Southeast 328 377 13,300 -885 Descending Salt Lake Center
Tue 09:27:43 AM 41.3372 -112.3431 153° Southeast 326 375 12,900 -787 Descending Salt Lake Center
Tue 09:28:14 AM 41.2989 -112.3100 147° Southeast 326 375 12,500 -787 Descending Salt Lake Center
Tue 09:28:44 AM 41.2597 -112.2831 153° Southeast 323 372 12,100 -787 Descending Salt Lake Center
Tue 09:29:15 AM 41.2208 -112.2508 148° Southeast 321 369 11,700 -774 Descending Salt Lake Center
Tue 09:29:46 AM 41.1836 -112.2256 153° Southeast 316 364 11,300 -689 Descending Salt Lake Center
Tue 09:30:16 AM 41.1408 -112.1925 150° Southeast 312 359 11,000 -295 Descending Salt Lake Center
Tue 09:30:47 AM 41.1106 -112.1711 152° Southeast 305 351 11,000  Level Salt Lake Center
Tue 09:31:16 AM 41.0689 -112.1431 153° Southeast 295 339 11,000  Level Salt Lake Center
Tue 09:31:48 AM 41.0367 -112.1369 172° South 287 330 11,000  Level Salt Lake Center
Tue 09:32:17 AM 40.9883 -112.1275 172° South 288 331 11,000  Level Salt Lake Center
Tue 09:32:49 AM 40.9589 -112.1206 170° South 287 330 11,000  Level Salt Lake Center
Tue 09:33:18 AM 40.9119 -112.1108 171° South 286 329 11,000  Level Salt Lake Center
Tue 09:33:50 AM 40.8656 -112.1014 171° South 286 329 11,000  Level Salt Lake Center
Tue 09:34:19 AM 40.8281 -112.0997 178° South 281 323 11,000 -98 Level Salt Lake Center
Tue 09:34:51 AM 40.7906 -112.0944 174° South 272 313 10,900 -393 Descending Salt Lake Center
Tue 09:35:20 AM 40.7536 -112.0936 179° South 265 305 10,600 -581 Descending Salt Lake Center
Tue 09:35:53 AM 40.7200 -112.0889 174° South 255 293 10,300 -655 Descending Salt Lake Center
Tue 09:36:15 AM 40.6944 -112.0881 179° South 233 268 10,000 -689 Descending Salt Lake Center
Tue 09:36:54 AM 40.6594 -112.0808 171° South 221 254 9,600 -818 Descending Salt Lake Center
Tue 09:37:21 AM 40.6281 -112.0794 178° South 217 250 9,100 -787 Descending Salt Lake Center
Tue 09:37:55 AM 40.6108 -112.0494 127° Southeast 217 250 8,800 -885 Descending Salt Lake Center
Tue 09:38:22 AM 40.6192 -112.0231 67° East 188 216 8,200 -1,377 Descending Salt Lake Center
Tue 09:38:56 AM 40.6442 -112.0028 32° Northeast 196 226 7,400 -1,527 Descending Salt Lake Center
Tue 09:39:17 AM 40.6631 -111.9942 19° North 191 220 6,800 -1,714 Descending Salt Lake Center

Login

Don't have an account? Register now (free) for customized features, flight alerts, and more!